createdAt,value
2022-12-06T00:01:33.590Z,5.45
2022-12-06T00:04:05.213Z,5.42
2022-12-06T00:06:37.372Z,5.39
2022-12-06T00:09:05.382Z,5.18
2022-12-06T00:11:35.316Z,5.50
2022-12-06T00:14:06.513Z,5.52
2022-12-06T00:16:35.886Z,5.57
2022-12-06T00:19:05.054Z,5.62
2022-12-06T00:21:33.978Z,5.74
2022-12-06T00:24:11.005Z,5.75
2022-12-06T00:26:41.631Z,5.82
2022-12-06T00:29:23.632Z,5.84
2022-12-06T00:31:51.671Z,5.82
2022-12-06T00:34:19.567Z,5.87
2022-12-06T00:36:48.061Z,5.97
2022-12-06T00:39:17.638Z,5.79
2022-12-06T00:41:45.654Z,5.70
2022-12-06T00:44:13.694Z,5.72
2022-12-06T00:46:41.911Z,5.91
2022-12-06T00:49:10.240Z,5.82
2022-12-06T00:51:39.187Z,5.88
2022-12-06T00:54:07.632Z,5.94
2022-12-06T00:56:37.038Z,5.91
2022-12-06T00:59:06.167Z,5.73
2022-12-06T01:01:36.450Z,5.90
2022-12-06T01:04:07.206Z,5.75
2022-12-06T01:06:37.491Z,5.87
2022-12-06T01:09:08.385Z,5.50
2022-12-06T01:11:36.610Z,5.63
2022-12-06T01:14:04.719Z,5.49
2022-12-06T01:16:33.640Z,5.25
2022-12-06T01:19:04.383Z,5.52
2022-12-06T01:21:32.495Z,5.19
2022-12-06T01:24:00.377Z,5.18
2022-12-06T01:26:31.812Z,5.13
2022-12-06T01:29:00.371Z,5.24
2022-12-06T01:31:37.104Z,5.15
2022-12-06T01:34:07.787Z,5.37
2022-12-06T01:36:35.913Z,5.40
2022-12-06T01:39:07.182Z,5.43
2022-12-06T01:41:35.325Z,5.35
2022-12-06T01:44:04.620Z,5.13
2022-12-06T01:46:38.128Z,5.09
2022-12-06T01:49:29.546Z,4.64
2022-12-06T01:52:02.773Z,4.53
2022-12-06T01:54:30.925Z,4.50
2022-12-06T01:57:02.133Z,4.49
2022-12-06T01:59:30.759Z,4.42
2022-12-06T02:01:59.363Z,4.61
2022-12-06T02:04:31.294Z,4.74
2022-12-06T02:07:01.248Z,4.51
2022-12-06T02:09:30.225Z,4.43
2022-12-06T02:11:58.307Z,4.53
2022-12-06T02:14:35.633Z,4.56
2022-12-06T02:17:15.652Z,4.56
2022-12-06T02:20:05.658Z,4.65
2022-12-06T02:23:11.128Z,4.52
2022-12-06T02:25:57.272Z,4.53
2022-12-06T02:28:43.072Z,4.57
2022-12-06T02:31:21.818Z,4.67
2022-12-06T02:33:54.029Z,4.77
2022-12-06T02:36:42.265Z,4.65
2022-12-06T02:39:16.679Z,4.72
2022-12-06T02:42:02.778Z,4.63
2022-12-06T02:44:36.734Z,4.40
2022-12-06T02:47:08.201Z,4.54
2022-12-06T02:49:39.607Z,4.63
2022-12-06T02:52:07.600Z,4.54
2022-12-06T02:54:36.104Z,4.58
2022-12-06T02:57:04.076Z,4.66
2022-12-06T03:01:13.388Z,4.60
2022-12-06T03:04:04.664Z,4.33
2022-12-06T03:06:59.748Z,4.50
2022-12-06T03:09:50.173Z,4.49
2022-12-06T03:12:39.447Z,4.53
2022-12-06T03:15:34.463Z,4.38
2022-12-06T03:18:12.249Z,4.55
2022-12-06T03:20:47.671Z,4.63
2022-12-06T03:23:20.196Z,4.65
2022-12-06T03:25:49.979Z,4.72
2022-12-06T03:28:20.876Z,4.61
2022-12-06T03:30:52.304Z,4.70
2022-12-06T03:33:23.750Z,4.69
2022-12-06T03:35:53.356Z,4.60
2022-12-06T03:39:02.497Z,4.64
2022-12-06T03:41:36.658Z,4.56
2022-12-06T03:44:05.201Z,4.52
2022-12-06T03:46:44.738Z,4.53
2022-12-06T03:49:20.046Z,4.49
2022-12-06T03:51:48.681Z,4.52
2022-12-06T03:54:16.714Z,4.40
2022-12-06T03:56:44.772Z,4.40
2022-12-06T03:59:12.741Z,4.42
2022-12-06T04:01:40.736Z,4.40
2022-12-06T04:04:10.665Z,4.47
2022-12-06T04:06:38.647Z,4.42
2022-12-06T04:09:24.959Z,4.30
2022-12-06T04:11:52.980Z,4.45
2022-12-06T04:14:21.096Z,4.29
2022-12-06T04:17:07.667Z,4.31
2022-12-06T04:19:35.540Z,4.35
2022-12-06T04:22:22.138Z,4.31
2022-12-06T04:24:50.081Z,4.30
2022-12-06T04:27:36.236Z,4.29
2022-12-06T04:30:22.931Z,4.29
2022-12-06T04:33:09.786Z,4.27
2022-12-06T04:35:56.165Z,4.29
2022-12-06T04:38:42.225Z,4.28
2022-12-06T04:41:11.168Z,4.32
2022-12-06T04:43:42.335Z,4.41
2022-12-06T04:46:18.424Z,4.44
2022-12-06T04:48:46.780Z,4.52
2022-12-06T04:51:15.117Z,4.43
2022-12-06T04:53:43.369Z,4.45
2022-12-06T04:56:11.579Z,4.57
2022-12-06T04:58:39.553Z,4.59
2022-12-06T05:01:07.819Z,4.61
2022-12-06T05:03:40.868Z,4.68
2022-12-06T05:06:12.113Z,4.63
2022-12-06T05:08:40.062Z,4.75
2022-12-06T05:11:08.096Z,4.72
2022-12-06T05:13:36.649Z,4.68
2022-12-06T05:16:06.304Z,4.70
2022-12-06T05:18:34.976Z,4.60
2022-12-06T05:21:14.013Z,4.54
2022-12-06T05:23:42.583Z,4.61
2022-12-06T05:26:19.616Z,4.59
2022-12-06T05:28:48.292Z,4.73
2022-12-06T05:31:17.113Z,4.65
2022-12-06T05:33:45.988Z,4.40
2022-12-06T05:36:17.547Z,4.47
2022-12-06T05:38:51.104Z,4.62
2022-12-06T05:41:21.504Z,4.65
2022-12-06T05:43:49.675Z,4.63
2022-12-06T05:46:18.605Z,4.74
2022-12-06T05:48:46.778Z,4.77
2022-12-06T05:51:14.842Z,4.85
2022-12-06T05:53:42.806Z,4.88
2022-12-06T05:56:13.059Z,4.77
2022-12-06T05:58:41.019Z,4.63
2022-12-06T06:01:09.860Z,4.63
2022-12-06T06:03:43.825Z,4.58
2022-12-06T06:06:13.631Z,4.62
2022-12-06T06:08:41.660Z,4.36
2022-12-06T06:11:09.779Z,4.24
2022-12-06T06:13:37.887Z,4.49
2022-12-06T06:16:06.604Z,4.73
2022-12-06T06:18:34.567Z,4.89
2022-12-06T06:21:02.715Z,5.03
2022-12-06T06:23:31.088Z,5.12
2022-12-06T06:25:59.040Z,5.15
2022-12-06T06:28:26.996Z,5.07
2022-12-06T06:30:55.056Z,5.16
2022-12-06T06:33:22.999Z,5.16
2022-12-06T06:35:50.892Z,5.20
2022-12-06T06:38:18.770Z,5.24
2022-12-06T06:40:47.456Z,5.27
2022-12-06T06:43:18.855Z,5.44
2022-12-06T06:45:56.024Z,5.59
2022-12-06T06:48:25.471Z,5.71
2022-12-06T06:50:57.216Z,5.84
2022-12-06T06:53:28.036Z,5.78
2022-12-06T06:55:56.067Z,5.82
2022-12-06T06:58:24.841Z,5.84
2022-12-06T07:00:58.375Z,6.00
2022-12-06T07:03:28.344Z,5.89
2022-12-06T07:06:04.903Z,6.08
2022-12-06T07:08:33.183Z,6.12
2022-12-06T07:11:01.511Z,6.01
2022-12-06T07:13:30.794Z,6.01
2022-12-06T07:15:59.284Z,5.65
2022-12-06T07:18:27.181Z,5.63
2022-12-06T07:21:04.212Z,5.39
2022-12-06T07:23:34.017Z,5.63
2022-12-06T07:26:07.149Z,5.81
2022-12-06T07:28:40.057Z,5.80
2022-12-06T07:31:14.416Z,5.75
2022-12-06T07:33:43.672Z,5.86
2022-12-06T07:36:13.802Z,5.82
2022-12-06T07:38:43.649Z,5.86
2022-12-06T07:41:32.204Z,5.89
2022-12-06T07:44:20.256Z,5.65
2022-12-06T07:46:48.845Z,5.42
2022-12-06T07:49:17.849Z,5.60
2022-12-06T07:51:46.619Z,5.67
2022-12-06T07:54:16.523Z,5.77
2022-12-06T07:56:47.846Z,5.52
2022-12-06T07:59:15.825Z,5.72
2022-12-06T08:01:44.053Z,5.51
2022-12-06T08:04:12.112Z,5.34
2022-12-06T08:06:40.700Z,5.58
2022-12-06T08:09:09.367Z,5.57
2022-12-06T08:11:37.314Z,5.53
2022-12-06T08:14:05.745Z,5.65
2022-12-06T08:16:33.958Z,5.87
2022-12-06T08:19:01.905Z,5.83
2022-12-06T08:21:30.468Z,5.96
2022-12-06T08:23:58.502Z,6.20
2022-12-06T08:26:26.494Z,6.40
2022-12-06T08:28:54.507Z,6.42
2022-12-06T08:31:24.698Z,6.78
2022-12-06T08:33:52.746Z,6.95
2022-12-06T08:36:22.481Z,7.29
2022-12-06T08:38:52.062Z,7.59
2022-12-06T08:41:39.807Z,7.49
2022-12-06T08:44:10.106Z,6.95
2022-12-06T08:46:38.302Z,7.13
2022-12-06T08:49:06.367Z,7.09
2022-12-06T08:51:36.197Z,6.92
2022-12-06T08:54:05.472Z,6.97
2022-12-06T08:56:33.604Z,6.76
2022-12-06T08:59:01.656Z,6.49
2022-12-06T09:01:37.386Z,6.23
2022-12-06T09:04:08.680Z,6.59
2022-12-06T09:06:39.233Z,6.84
2022-12-06T09:09:08.565Z,6.60
2022-12-06T09:11:37.194Z,6.67
2022-12-06T09:14:05.845Z,6.88
2022-12-06T09:16:33.883Z,7.03
2022-12-06T09:19:02.062Z,7.04
2022-12-06T09:21:30.864Z,7.05
2022-12-06T09:23:59.546Z,7.20
2022-12-06T09:26:29.169Z,6.85
2022-12-06T09:28:58.380Z,7.09
2022-12-06T09:31:26.454Z,7.14
2022-12-06T09:33:54.672Z,7.18
2022-12-06T09:36:27.811Z,7.31
2022-12-06T09:39:00.860Z,7.09
2022-12-06T09:41:58.937Z,7.24
2022-12-06T09:44:46.059Z,7.31
2022-12-06T09:47:22.641Z,7.43
2022-12-06T09:50:14.837Z,7.48
2022-12-06T09:52:57.735Z,7.61
2022-12-06T09:55:40.857Z,7.64
2022-12-06T09:58:17.583Z,7.54
2022-12-06T10:00:57.236Z,7.21
2022-12-06T10:03:28.136Z,7.19
2022-12-06T10:06:03.106Z,7.49
2022-12-06T10:08:49.625Z,7.62
2022-12-06T10:11:35.977Z,7.72
2022-12-06T10:14:34.964Z,7.88
2022-12-06T10:17:35.816Z,7.81
2022-12-06T10:20:24.810Z,8.53
2022-12-06T10:23:22.043Z,10.51
2022-12-06T10:26:05.584Z,12.45
2022-12-06T10:28:39.390Z,12.99
2022-12-06T10:31:31.074Z,13.94
2022-12-06T10:34:27.821Z,14.57
2022-12-06T10:37:09.507Z,15.69
2022-12-06T10:39:54.596Z,17.06
2022-12-06T10:42:43.555Z,17.37
2022-12-06T10:45:37.354Z,18.17
2022-12-06T10:48:15.163Z,18.81
2022-12-06T10:50:46.092Z,19.68
2022-12-06T10:53:18.960Z,19.39
2022-12-06T10:55:54.994Z,19.64
2022-12-06T10:58:30.989Z,16.75
2022-12-06T11:01:03.219Z,15.42
2022-12-06T11:03:50.343Z,14.46
2022-12-06T11:07:02.673Z,14.42
2022-12-06T11:09:49.400Z,15.56
2022-12-06T11:12:31.969Z,15.47
2022-12-06T11:15:24.556Z,15.57
2022-12-06T11:18:10.359Z,13.71
2022-12-06T11:20:52.039Z,13.22
2022-12-06T11:23:29.561Z,14.19
2022-12-06T11:26:03.639Z,15.13
2022-12-06T11:28:38.025Z,14.33
2022-12-06T11:31:23.729Z,12.81
2022-12-06T11:33:51.925Z,12.90
2022-12-06T11:36:21.927Z,11.79
2022-12-06T11:38:50.107Z,10.33
2022-12-06T11:41:28.045Z,9.74
2022-12-06T11:43:56.619Z,9.58
2022-12-06T11:46:25.549Z,8.76
2022-12-06T11:48:54.525Z,8.39
2022-12-06T11:51:24.504Z,8.20
2022-12-06T11:53:58.514Z,7.78
2022-12-06T11:56:30.190Z,7.50
2022-12-06T11:59:27.375Z,7.69
2022-12-06T12:02:01.559Z,7.47
2022-12-06T12:04:41.418Z,7.46
2022-12-06T12:07:20.368Z,7.48
2022-12-06T12:09:54.287Z,7.74
2022-12-06T12:12:56.906Z,7.67
2022-12-06T12:15:27.831Z,7.97
2022-12-06T12:17:58.763Z,8.27
2022-12-06T12:20:30.471Z,8.11
2022-12-06T12:23:13.633Z,8.05
2022-12-06T12:25:43.929Z,8.12
2022-12-06T12:28:27.094Z,8.24
2022-12-06T12:31:00.624Z,8.41
2022-12-06T12:33:29.319Z,8.33
2022-12-06T12:36:16.064Z,8.27
2022-12-06T12:38:54.396Z,8.35
2022-12-06T12:41:41.142Z,8.34
2022-12-06T12:44:38.154Z,8.45
2022-12-06T12:47:21.264Z,8.25
2022-12-06T12:50:04.064Z,8.31
2022-12-06T12:52:38.351Z,8.40
2022-12-06T12:55:16.084Z,8.37
2022-12-06T12:57:46.721Z,8.31
2022-12-06T13:00:17.066Z,8.29
2022-12-06T13:02:51.386Z,8.25
2022-12-06T13:05:43.424Z,8.43
2022-12-06T13:08:14.008Z,8.02
2022-12-06T13:10:44.734Z,8.07
2022-12-06T13:13:17.473Z,8.12
2022-12-06T13:15:52.624Z,8.03
2022-12-06T13:18:25.339Z,7.71
2022-12-06T13:20:56.916Z,7.65
2022-12-06T13:23:29.647Z,7.87
2022-12-06T13:26:26.957Z,7.83
2022-12-06T13:29:00.105Z,7.50
2022-12-06T13:31:33.636Z,7.42
2022-12-06T13:34:14.175Z,7.43
2022-12-06T13:36:42.508Z,7.61
2022-12-06T13:39:31.711Z,7.33
2022-12-06T13:42:20.443Z,7.27
2022-12-06T13:44:48.378Z,7.41
2022-12-06T13:47:38.485Z,7.47
2022-12-06T13:50:18.110Z,7.36
2022-12-06T13:52:46.120Z,7.46
2022-12-06T13:55:26.305Z,7.42
2022-12-06T13:58:17.423Z,7.48
2022-12-06T14:00:49.726Z,7.38
2022-12-06T14:03:17.731Z,7.38
2022-12-06T14:06:15.794Z,7.43
2022-12-06T14:08:53.688Z,7.54
2022-12-06T14:11:27.528Z,7.54
2022-12-06T14:13:55.542Z,7.49
2022-12-06T14:17:02.459Z,7.45
2022-12-06T14:19:41.566Z,7.59
2022-12-06T14:22:34.474Z,7.35
2022-12-06T14:25:06.031Z,7.05
2022-12-06T14:27:42.129Z,7.14
2022-12-06T14:30:25.461Z,7.23
2022-12-06T14:32:56.561Z,7.09
2022-12-06T14:35:27.990Z,7.07
2022-12-06T14:38:23.551Z,7.09
2022-12-06T14:41:11.350Z,7.04
2022-12-06T14:43:40.959Z,6.96
2022-12-06T14:46:12.964Z,6.86
2022-12-06T14:49:00.212Z,6.85
2022-12-06T14:51:38.162Z,6.79
2022-12-06T14:54:35.499Z,6.77
2022-12-06T14:57:04.517Z,6.76
2022-12-06T15:00:12.935Z,6.62
2022-12-06T15:02:27.169Z,6.49
2022-12-06T15:04:55.781Z,6.56
2022-12-06T15:07:43.608Z,6.60
2022-12-06T15:10:20.641Z,6.60
2022-12-06T15:12:57.158Z,6.44
2022-12-06T15:15:46.668Z,6.36
2022-12-06T15:18:24.026Z,6.30
2022-12-06T15:20:55.955Z,6.28
2022-12-06T15:23:39.421Z,6.36
2022-12-06T15:26:13.051Z,6.31
2022-12-06T15:28:41.942Z,6.29
2022-12-06T15:31:37.556Z,6.24
2022-12-06T15:34:25.099Z,6.32
2022-12-06T15:37:15.262Z,6.26
2022-12-06T15:39:43.658Z,6.16
2022-12-06T15:42:20.898Z,6.04
2022-12-06T15:44:50.820Z,5.92
2022-12-06T15:47:19.933Z,6.13
2022-12-06T15:49:54.040Z,6.13
2022-12-06T15:52:26.272Z,6.20
2022-12-06T15:54:54.957Z,6.19
2022-12-06T15:57:22.997Z,6.25
2022-12-06T15:59:51.186Z,6.25
2022-12-06T16:02:19.649Z,6.27
2022-12-06T16:04:52.169Z,6.26
2022-12-06T16:07:20.459Z,6.05
2022-12-06T16:09:48.794Z,5.83
2022-12-06T16:12:18.186Z,5.69
2022-12-06T16:14:46.157Z,5.80
2022-12-06T16:17:14.139Z,5.57
2022-12-06T16:20:02.488Z,5.50
2022-12-06T16:22:49.225Z,5.50
2022-12-06T16:25:17.265Z,5.63
2022-12-06T16:27:45.061Z,5.73
2022-12-06T16:30:13.738Z,5.61
2022-12-06T16:32:42.202Z,5.62
2022-12-06T16:35:10.350Z,5.55
2022-12-06T16:37:38.840Z,5.44
2022-12-06T16:40:08.488Z,5.47
2022-12-06T16:42:37.155Z,5.49
2022-12-06T16:45:05.917Z,5.44
2022-12-06T16:47:34.406Z,5.42
2022-12-06T16:50:03.005Z,5.36
2022-12-06T16:52:31.737Z,5.30
2022-12-06T16:55:00.576Z,5.29
2022-12-06T16:57:28.819Z,5.29
2022-12-06T16:59:56.856Z,5.21
2022-12-06T17:02:31.322Z,5.30
2022-12-06T17:05:01.570Z,5.32
2022-12-06T17:07:30.470Z,5.19
2022-12-06T17:09:58.996Z,5.19
2022-12-06T17:12:27.399Z,5.23
2022-12-06T17:14:55.491Z,5.20
2022-12-06T17:17:26.200Z,5.10
2022-12-06T17:19:56.512Z,5.07
2022-12-06T17:22:25.042Z,5.06
2022-12-06T17:24:53.232Z,5.08
2022-12-06T17:27:21.125Z,5.09
2022-12-06T17:29:49.538Z,5.07
2022-12-06T17:32:18.613Z,5.09
2022-12-06T17:34:47.888Z,5.13
2022-12-06T17:37:16.346Z,5.01
2022-12-06T17:39:45.008Z,5.10
2022-12-06T17:42:31.821Z,5.09
2022-12-06T17:45:00.218Z,5.03
2022-12-06T17:47:28.897Z,4.92
2022-12-06T17:49:57.420Z,4.95
2022-12-06T17:52:26.156Z,4.94
2022-12-06T17:54:54.507Z,4.97
2022-12-06T17:57:23.183Z,4.91
2022-12-06T17:59:51.655Z,4.91
2022-12-06T18:02:24.356Z,4.96
2022-12-06T18:04:54.429Z,5.00
2022-12-06T18:07:23.126Z,4.98
2022-12-06T18:09:51.663Z,5.02
2022-12-06T18:12:20.233Z,4.99
2022-12-06T18:14:48.813Z,4.87
2022-12-06T18:17:17.507Z,4.95
2022-12-06T18:19:47.451Z,4.91
2022-12-06T18:22:16.624Z,4.93
2022-12-06T18:24:45.142Z,5.02
2022-12-06T18:27:13.830Z,4.99
2022-12-06T18:29:42.652Z,5.02
2022-12-06T18:32:11.321Z,5.05
2022-12-06T18:34:39.801Z,4.91
2022-12-06T18:37:08.583Z,4.95
2022-12-06T18:39:37.161Z,4.82
2022-12-06T18:42:05.720Z,4.96
2022-12-06T18:44:34.265Z,4.99
2022-12-06T18:47:02.782Z,5.00
2022-12-06T18:49:31.239Z,5.00
2022-12-06T18:51:59.354Z,5.08
2022-12-06T18:54:30.519Z,5.07
2022-12-06T18:56:59.772Z,5.14
2022-12-06T18:59:29.165Z,5.11
2022-12-06T19:01:57.787Z,5.08
2022-12-06T19:04:26.541Z,5.13
2022-12-06T19:06:55.134Z,4.86
2022-12-06T19:09:23.608Z,4.81
2022-12-06T19:11:52.369Z,4.88
2022-12-06T19:14:20.623Z,4.99
2022-12-06T19:16:50.702Z,5.01
2022-12-06T19:19:22.649Z,5.10
2022-12-06T19:21:53.408Z,5.08
2022-12-06T19:24:25.109Z,5.14
2022-12-06T19:26:58.343Z,5.16
2022-12-06T19:29:29.387Z,5.23
2022-12-06T19:31:58.100Z,5.24
2022-12-06T19:34:29.896Z,5.23
2022-12-06T19:36:58.356Z,5.20
2022-12-06T19:39:29.897Z,5.26
2022-12-06T19:42:17.152Z,5.24
2022-12-06T19:44:45.574Z,5.25
2022-12-06T19:47:14.601Z,5.17
2022-12-06T19:49:42.803Z,5.17
2022-12-06T19:52:11.176Z,5.11
2022-12-06T19:54:40.566Z,5.11
2022-12-06T19:57:09.146Z,5.09
2022-12-06T19:59:39.755Z,5.08
2022-12-06T20:02:12.914Z,5.08
2022-12-06T20:04:42.411Z,5.00
2022-12-06T20:07:11.207Z,4.95
2022-12-06T20:09:39.943Z,4.86
2022-12-06T20:12:08.591Z,4.83
2022-12-06T20:14:45.712Z,4.93
2022-12-06T20:17:17.205Z,4.88
2022-12-06T20:19:46.707Z,4.86
2022-12-06T20:22:16.707Z,4.81
2022-12-06T20:24:45.448Z,4.80
2022-12-06T20:27:14.359Z,4.81
2022-12-06T20:29:42.876Z,4.81
2022-12-06T20:32:11.819Z,4.82
2022-12-06T20:34:40.111Z,4.58
2022-12-06T20:37:08.112Z,4.85
2022-12-06T20:39:36.667Z,4.75
2022-12-06T20:42:07.365Z,4.88
2022-12-06T20:44:37.322Z,4.84
2022-12-06T20:47:05.742Z,4.76
2022-12-06T20:49:34.192Z,4.83
2022-12-06T20:52:03.992Z,4.80
2022-12-06T20:54:32.613Z,4.76
2022-12-06T20:57:00.809Z,4.89
2022-12-06T20:59:29.821Z,4.78
2022-12-06T21:01:58.126Z,4.56
2022-12-06T21:04:30.105Z,4.41
2022-12-06T21:06:58.520Z,4.38
2022-12-06T21:09:27.054Z,4.48
2022-12-06T21:11:55.442Z,4.68
2022-12-06T21:14:23.672Z,4.68
2022-12-06T21:16:52.289Z,4.63
2022-12-06T21:19:20.672Z,4.54
2022-12-06T21:21:51.831Z,4.75
2022-12-06T21:24:22.152Z,4.81
2022-12-06T21:26:50.481Z,4.88
2022-12-06T21:29:29.735Z,4.99
2022-12-06T21:32:01.821Z,5.13
2022-12-06T21:34:30.307Z,4.84
2022-12-06T21:36:58.556Z,5.01
2022-12-06T21:39:26.808Z,4.97
2022-12-06T21:41:55.193Z,5.03
2022-12-06T21:44:24.264Z,5.10
2022-12-06T21:46:53.792Z,5.09
2022-12-06T21:49:21.874Z,5.12
2022-12-06T21:51:52.680Z,5.02
2022-12-06T21:54:23.121Z,4.91
2022-12-06T21:56:51.155Z,4.94
2022-12-06T21:59:19.486Z,4.87
2022-12-06T22:01:50.515Z,4.89
2022-12-06T22:04:18.608Z,4.88
2022-12-06T22:06:46.672Z,4.88
2022-12-06T22:09:14.634Z,4.91
2022-12-06T22:11:42.801Z,4.97
2022-12-06T22:14:11.612Z,5.05
2022-12-06T22:16:40.014Z,5.11
2022-12-06T22:19:07.883Z,5.12
2022-12-06T22:21:35.904Z,5.17
2022-12-06T22:24:03.929Z,5.11
2022-12-06T22:26:32.303Z,5.25
2022-12-06T22:29:01.414Z,5.26
2022-12-06T22:31:30.465Z,5.32
2022-12-06T22:33:59.039Z,5.25
2022-12-06T22:36:29.665Z,5.08
2022-12-06T22:39:00.163Z,5.19
2022-12-06T22:41:29.158Z,5.09
2022-12-06T22:43:59.691Z,5.21
2022-12-06T22:46:29.182Z,5.27
2022-12-06T22:48:58.200Z,5.39
2022-12-06T22:51:29.325Z,5.38
2022-12-06T22:53:59.660Z,5.46
2022-12-06T22:56:29.471Z,5.57
2022-12-06T22:58:59.207Z,5.16
2022-12-06T23:01:30.222Z,5.27
2022-12-06T23:04:00.576Z,5.08
2022-12-06T23:06:29.184Z,5.22
2022-12-06T23:08:57.500Z,5.15
2022-12-06T23:11:30.400Z,5.33
2022-12-06T23:13:59.193Z,5.43
2022-12-06T23:16:29.443Z,5.45
2022-12-06T23:19:03.354Z,5.52
2022-12-06T23:21:33.367Z,5.52
2022-12-06T23:24:04.653Z,5.59
2022-12-06T23:26:38.268Z,5.69
2022-12-06T23:29:06.452Z,5.76
2022-12-06T23:31:37.687Z,5.73
2022-12-06T23:34:11.238Z,5.73
2022-12-06T23:36:39.194Z,5.77
2022-12-06T23:39:07.277Z,5.91
2022-12-06T23:41:36.202Z,5.97
2022-12-06T23:44:06.397Z,6.00
2022-12-06T23:46:36.799Z,5.97
2022-12-06T23:49:06.835Z,6.09
2022-12-06T23:51:37.334Z,6.09
2022-12-06T23:54:07.271Z,6.04
2022-12-06T23:56:38.081Z,5.93
2022-12-06T23:59:07.322Z,5.89
